Gooik, Belgium
Current Conditions -  °F | °C
As of 7:25 AM on Wednesday 28 Jan 2015 (Local Time) from EBCV Reporting Station
Broken Clouds Broken Clouds  
Wind Chill: 33°   Ceiling: 1400
Heat Index: 41°   Visibility: 6mi
Dew Point: 37°   Wind: 16mph
Humidity: 87%   Direction: 210°SSW
Pressure: 30.03"   Gusts: NA
Location:  50.79°N, 4.11°E
Report Text: EBCV 280625Z AUTO 21014KT 9999 FEW011/// BKN014/// BKN042/// 05/03 Q1017 GRN
Loading
Personal Weather Stations






























Interactive Weather Map New forecast layout! Learn more

10-Day Weather Forecast

Advertisements
Track Severe Weather on mobile